Date,TemperatureHighF,TemperatureAvgF,TemperatureLowF,DewpointHighF,DewpointAvgF,DewpointLowF,HumidityHigh,HumidityAvg,HumidityLow,PressureMaxIn,PressureMinIn,WindSpeedMaxMPH,WindSpeedAvgMPH,GustSpeedMaxMPH,PrecipitationSumIn
2013-1-1,33.8,28.5,21.1,33.0,25.5,16.0,96,88,79,30.26,30.07,12,5,14,0.01
2013-1-2,30.2,20.9,12.3,18.0,14.3,10.0,92,77,49,30.32,30.24,3,0,5,0.00
2013-1-3,39.8,25.8,13.5,30.0,21.3,11.0,92,84,65,30.43,30.26,7,1,10,0.00
2013-1-4,39.0,28.4,19.2,29.0,23.9,18.0,94,84,64,30.48,30.36,8,1,9,0.00
2013-1-5,40.0,32.8,21.8,35.0,25.6,-99.9,95,82,74,30.37,30.17,10,-28,12,0.00
2013-1-6,39.7,33.1,22.7,35.0,26.6,-99.9,93,82,73,30.41,30.10,14,-17,25,0.00
2013-1-7,41.7,22.0,18.9,31.0,-14.0,-99.9,94,55,63,30.47,30.21,8,-321,13,0.00
2013-1-8,49.9,29.5,24.3,37.0,-4.4,-99.9,94,54,59,30.28,30.17,7,-282,10,0.00
2013-1-9,56.9,48.0,42.2,49.0,43.3,38.0,97,84,66,30.47,30.21,7,2,11,0.24
2013-1-10,57.5,34.7,42.8,57.0,4.6,-99.9,97,65,73,30.46,29.82,8,-280,10,0.24
2013-1-11,60.8,28.1,54.6,53.0,-26.6,-99.9,87,38,73,29.94,29.82,17,-511,24,0.00
2013-1-12,64.3,25.5,38.9,60.0,-28.5,-99.9,96,43,84,29.95,29.68,19,-528,25,2.03
2013-1-13,38.3,30.9,24.1,37.0,28.6,19.0,95,91,82,30.35,29.84,18,9,22,0.43
2013-1-14,27.8,24.1,20.6,22.0,19.4,16.0,88,82,77,30.50,30.35,11,4,13,0.00
2013-1-15,30.5,26.5,21.5,26.0,22.7,19.0,90,85,81,30.40,30.13,6,2,12,0.02
2013-1-16,36.9,31.9,28.0,27.0,26.2,24.0,89,80,64,30.16,30.07,7,3,11,0.02
2013-1-17,43.1,35.3,27.0,37.0,29.8,24.0,91,80,74,30.51,30.14,17,6,23,0.03
2013-1-18,47.4,35.1,22.2,33.0,27.9,21.0,94,76,52,30.54,30.22,15,5,22,0.00
2013-1-19,56.6,47.6,36.8,42.0,35.7,27.0,80,64,50,30.23,29.97,17,8,26,0.00
2013-1-20,44.9,35.0,25.9,38.0,24.1,17.0,84,65,46,30.33,30.09,12,5,17,0.00
2013-1-21,28.9,24.8,18.3,20.0,12.7,5.0,78,61,43,30.40,30.25,16,9,24,0.00
2013-1-22,21.3,18.7,15.3,15.0,7.9,1.0,88,64,48,30.50,30.39,10,4,14,0.00
2013-1-23,43.4,28.1,15.1,26.0,19.5,13.0,91,73,47,30.41,30.16,9,2,18,0.00
2013-1-24,32.3,26.1,19.5,23.0,13.5,8.0,73,60,42,30.61,30.29,12,4,18,0.00
2013-1-25,41.0,32.8,27.5,27.0,20.7,9.0,76,62,43,30.28,30.14,9,2,13,0.00
2013-1-26,39.7,32.2,27.1,27.0,22.3,19.0,84,68,45,30.41,30.23,5,1,11,0.00
2013-1-27,50.9,36.9,26.3,48.0,34.0,21.0,95,89,78,30.35,30.05,14,5,17,0.35
2013-1-28,62.8,58.1,49.7,60.0,55.5,47.0,94,91,85,30.06,29.96,17,8,21,0.05
2013-1-29,70.2,63.8,53.2,63.0,59.1,52.0,94,85,70,29.95,29.36,29,13,43,0.80
2013-1-30,55.7,44.5,31.1,52.0,40.7,23.0,96,86,71,29.90,29.39,19,8,28,0.46
2013-1-31,38.2,29.7,17.3,31.0,21.4,6.0,92,72,61,30.35,29.90,24,9,30,0.00
2013-2-1,27.0,19.9,11.8,17.0,9.1,4.0,73,63,51,30.55,30.32,19,6,24,0.00
2013-2-2,43.4,34.0,26.5,31.0,24.6,16.0,88,69,56,30.32,30.07,14,5,20,0.00
2013-2-3,34.7,29.1,21.1,30.0,24.3,17.0,95,83,61,30.20,30.01,19,4,21,0.00
2013-2-4,48.0,37.3,21.8,42.0,31.6,16.0,92,80,62,30.09,29.83,10,4,20,0.13
2013-2-5,55.1,40.2,27.6,39.0,33.3,26.0,93,78,54,30.12,29.91,12,3,16,0.00
2013-2-6,50.1,38.9,27.0,37.0,32.7,25.0,95,79,59,30.27,30.11,7,2,10,0.00
2013-2-7,65.7,48.2,32.3,51.0,41.1,30.0,94,78,52,30.10,29.83,14,5,21,0.17
2013-2-8,43.4,37.7,33.5,41.0,33.1,29.0,90,84,77,30.39,29.97,21,8,25,0.00
2013-2-9,46.0,38.7,32.6,37.0,31.9,28.0,88,77,63,30.39,30.07,9,3,14,0.07
2013-2-10,56.1,49.4,40.3,53.0,45.7,37.0,94,87,74,30.06,29.65,23,6,24,0.49
2013-2-11,54.2,45.1,35.0,43.0,31.5,28.0,76,60,43,30.15,29.79,15,5,22,0.00
2013-2-12,48.5,39.0,27.0,37.0,32.4,25.0,94,78,58,30.17,29.91,6,1,8,0.00
2013-2-13,51.5,42.5,37.2,39.0,35.6,31.0,92,78,46,29.91,29.84,9,4,13,0.04
2013-2-14,58.2,45.9,37.3,42.0,37.2,35.0,93,74,51,30.04,29.86,12,4,16,0.00
2013-2-15,42.4,36.8,26.7,37.0,26.6,20.0,87,68,50,30.24,30.04,18,6,20,0.00
2013-2-16,35.6,28.9,22.0,24.0,18.9,14.0,87,67,46,30.25,30.19,15,6,18,0.00
2013-2-17,47.0,33.5,18.9,27.0,21.9,15.0,92,65,41,30.26,30.02,12,3,16,0.00
2013-2-18,57.6,47.4,38.7,48.0,40.6,27.0,93,78,62,30.02,29.61,23,11,34,0.50
2013-2-19,40.5,33.8,27.5,36.0,23.7,17.0,84,67,48,30.29,29.86,19,10,26,0.01
2013-2-20,29.6,25.5,22.0,20.0,17.1,13.0,84,71,61,30.41,30.29,12,4,18,0.00
2013-2-21,34.1,28.5,21.9,33.0,24.7,18.0,94,86,74,30.33,29.83,10,4,16,0.01
2013-2-22,40.3,34.8,27.6,36.0,31.6,25.0,96,88,76,30.09,29.82,11,3,19,0.26
2013-2-23,39.1,30.6,23.5,29.0,25.4,21.0,93,81,63,30.07,29.99,11,2,12,0.00
2013-2-24,48.6,35.1,22.4,35.0,28.1,21.0,95,78,52,30.17,30.04,5,1,6,0.00
2013-2-25,51.0,41.6,31.0,38.0,32.9,28.0,88,72,56,30.07,29.57,13,5,15,0.01
2013-2-26,51.1,43.1,38.3,45.0,39.9,35.0,95,89,74,29.63,29.35,13,5,24,0.61
2013-2-27,39.5,26.2,35.3,35.0,-6.1,-99.9,92,60,74,29.88,29.65,11,-290,19,0.03
2013-2-28,37.4,15.9,34.0,33.0,-41.6,-99.9,89,38,85,30.09,29.88,11,-555,17,0.00
2013-3-1,37.5,16.5,33.0,35.0,-37.0,-99.9,95,44,87,30.14,30.05,14,-522,16,0.07
2013-3-2,34.1,21.3,28.6,29.0,-14.8,-99.9,88,53,64,30.22,30.13,14,-313,18,0.00
2013-3-3,39.0,31.7,21.1,28.0,23.2,19.0,92,72,51,30.21,30.09,8,2,9,0.00
2013-3-4,52.4,43.6,35.0,39.0,32.9,28.0,81,67,48,30.10,29.79,15,4,17,0.00
2013-3-5,46.2,38.3,33.2,40.0,33.5,26.0,94,83,69,30.05,29.76,27,9,33,0.10
2013-3-6,38.4,34.8,32.1,31.0,28.3,27.0,84,77,71,30.35,30.05,19,10,29,0.00
2013-3-7,44.5,34.2,25.2,33.0,28.4,23.0,94,80,63,30.44,30.35,5,1,8,0.00
2013-3-8,52.9,40.1,26.8,38.0,32.1,25.0,93,75,47,30.47,30.25,8,2,14,0.00
2013-3-9,65.9,52.1,39.6,41.0,36.8,33.0,80,58,37,30.25,29.88,17,5,19,0.00
2013-3-10,65.9,58.3,49.7,54.0,47.2,39.0,95,69,45,29.88,29.67,25,10,32,0.42
2013-3-11,51.4,40.6,36.8,50.0,36.8,30.0,95,86,77,30.00,29.68,11,5,18,0.00
2013-3-12,50.2,39.8,30.4,32.0,29.4,24.0,88,68,45,30.19,30.00,21,5,23,0.00
2013-3-13,40.5,34.4,27.1,28.0,24.0,20.0,83,67,53,30.43,30.18,19,8,24,0.00
2013-3-14,45.3,34.1,22.8,33.0,26.9,21.0,93,76,53,30.42,30.15,15,4,19,0.00
2013-3-15,72.0,51.8,29.3,54.0,41.2,28.0,95,71,37,30.14,29.69,18,3,22,0.00
2013-3-16,66.6,53.2,39.9,52.0,45.0,36.0,87,74,60,30.02,29.66,17,7,23,0.00
2013-3-17,39.9,37.1,33.9,38.0,35.5,32.0,95,93,85,30.09,29.81,9,3,13,1.91
2013-3-18,47.2,42.7,37.1,43.0,40.0,35.0,96,90,79,29.98,29.65,12,4,17,0.66
2013-3-19,47.7,39.2,30.9,33.0,26.6,23.0,86,62,39,30.22,29.98,12,5,21,0.32
2013-3-20,36.7,33.4,28.5,31.0,23.7,17.0,89,68,54,30.25,30.12,21,8,25,0.20
2013-3-21,38.2,30.3,23.0,25.0,19.4,15.0,74,64,49,30.14,30.01,9,3,12,0.02
2013-3-22,42.5,36.7,31.8,29.0,26.1,23.0,76,66,49,30.07,30.00,5,2,9,0.00
2013-3-23,55.7,44.9,37.8,39.0,32.5,27.0,73,63,48,30.04,29.78,7,2,10,0.01
2013-3-24,45.5,36.6,33.1,39.0,34.3,32.0,95,91,75,29.79,29.43,17,6,26,0.38
2013-3-25,37.7,33.9,31.9,35.0,31.2,29.0,95,89,79,30.17,29.73,17,10,24,0.11
2013-3-26,42.2,36.0,28.0,35.0,29.2,25.0,88,77,61,30.36,30.17,14,7,17,0.00
2013-3-27,48.9,36.1,23.4,34.0,27.8,22.0,95,74,48,30.42,30.32,7,1,12,0.00
2013-3-28,57.3,45.8,34.7,42.0,35.0,30.0,82,67,47,30.39,30.26,5,2,15,0.00
2013-3-29,57.6,48.1,41.3,50.0,44.1,38.0,95,86,68,30.29,30.19,6,2,8,0.16
2013-3-30,57.8,47.7,36.1,49.0,44.2,35.0,97,88,67,30.21,29.92,11,3,14,0.16
2013-3-31,66.2,54.7,48.4,53.0,48.0,44.0,96,80,47,29.93,29.84,13,3,17,0.00
2013-4-1,54.0,45.1,37.1,45.0,32.3,27.0,73,62,44,30.21,29.90,15,6,19,0.00
2013-4-2,48.9,39.7,31.1,31.0,24.4,15.0,79,56,27,30.34,30.21,8,3,15,0.00
2013-4-3,53.1,43.1,30.3,31.0,28.1,24.0,91,58,37,30.38,30.24,8,2,12,0.00
2013-4-4,60.9,46.9,34.7,39.0,29.6,26.0,82,54,28,30.24,30.01,5,1,18,0.00
2013-4-5,66.2,51.7,33.7,46.0,37.6,30.0,89,62,33,30.14,30.04,11,3,17,0.00
2013-4-6,73.3,61.2,44.4,47.0,40.8,37.0,77,50,30,30.08,29.81,22,8,35,0.00
2013-4-7,76.0,67.9,58.6,58.0,54.0,46.0,82,62,49,29.93,29.83,16,7,20,0.00
2013-4-8,74.7,66.4,60.2,61.0,57.0,54.0,84,72,56,29.91,29.80,22,7,24,0.00
2013-4-9,82.3,71.4,62.6,65.0,61.3,57.0,84,71,53,29.95,29.83,21,8,28,0.00
2013-4-10,81.4,75.0,66.1,71.0,67.0,63.0,91,76,65,29.85,29.64,23,8,26,0.31
2013-4-11,66.5,53.6,42.6,64.0,50.7,36.0,95,90,76,29.75,29.55,21,6,26,0.40
2013-4-12,53.8,44.7,36.3,38.0,35.3,34.0,91,71,55,30.04,29.74,14,5,20,0.00
2013-4-13,62.6,49.5,32.9,44.0,38.1,31.0,94,68,43,30.09,29.95,11,2,15,0.00
2013-4-14,77.1,63.1,46.8,55.0,47.6,41.0,82,59,36,29.94,29.70,19,8,31,0.00
2013-4-15,77.5,66.0,56.2,64.0,57.9,51.0,87,75,61,29.91,29.78,18,5,22,0.00
2013-4-16,71.0,59.9,54.1,62.0,55.7,51.0,91,86,72,30.10,29.84,11,4,18,0.00
2013-4-17,85.0,68.2,53.5,72.0,62.3,52.0,97,82,60,30.10,29.76,19,5,24,0.00
2013-4-18,76.6,67.2,45.1,68.0,61.0,41.0,95,81,66,29.76,29.61,26,12,33,1.69
2013-4-19,50.9,44.4,38.7,40.0,33.8,30.0,83,67,47,30.08,29.70,14,5,26,0.43
2013-4-20,56.8,46.0,33.7,38.0,34.4,30.0,92,66,37,30.35,30.08,8,2,15,0.00
2013-4-21,63.6,50.9,39.7,46.0,39.1,34.0,81,65,43,30.44,30.27,6,2,10,0.01
2013-4-22,73.7,57.7,39.5,51.0,44.1,37.0,90,64,35,30.28,30.02,12,3,17,0.00
2013-4-23,70.8,59.2,45.3,62.0,52.9,43.0,93,80,67,30.03,29.79,25,7,27,0.21
2013-4-24,51.4,44.3,38.0,43.0,38.9,34.0,94,82,54,30.27,29.92,23,6,23,0.59
2013-4-25,61.8,48.9,34.4,44.0,39.0,33.0,95,72,41,30.35,30.27,13,3,16,0.00
2013-4-26,59.8,51.9,43.4,50.0,44.6,39.0,94,77,58,30.42,30.26,14,2,14,0.02
2013-4-27,57.6,53.8,50.1,56.0,52.3,49.0,97,95,89,30.32,29.89,6,2,11,0.21
2013-4-28,59.2,56.2,54.1,56.0,54.2,53.0,97,92,85,29.95,29.86,10,3,13,0.02
2013-4-29,73.9,61.0,46.0,62.0,55.0,45.0,97,82,60,29.99,29.85,12,4,17,0.00
2013-4-30,83.8,70.1,57.3,62.0,58.5,55.0,91,70,45,29.96,29.86,12,4,17,0.00
2013-5-1,81.5,69.3,54.2,68.0,60.4,52.0,95,75,54,30.07,29.96,6,1,9,0.00
2013-5-2,79.3,67.3,56.2,62.0,59.3,54.0,96,78,48,30.12,30.01,10,3,16,0.11
2013-5-3,60.7,53.6,44.1,60.0,52.1,43.0,96,95,92,30.04,29.75,11,3,13,0.65
2013-5-4,51.1,46.1,43.0,47.0,44.0,41.0,95,92,86,29.99,29.86,5,2,10,0.31
2013-5-5,60.2,45.3,46.8,57.0,29.4,-99.9,97,80,88,29.99,29.84,7,-144,10,0.52
2013-5-6,64.3,31.7,55.2,60.0,-18.0,-99.9,96,46,83,29.94,29.85,8,-477,13,0.01
2013-5-7,75.7,47.2,56.7,64.0,12.4,-99.9,96,55,58,30.01,29.93,7,-294,9,0.00
2013-5-8,81.4,67.6,52.2,63.0,56.2,51.0,97,71,35,30.03,29.95,7,1,12,0.00
2013-5-9,81.4,71.7,61.7,66.0,60.8,54.0,93,71,42,29.98,29.83,18,5,26,0.00
2013-5-10,75.6,67.1,58.9,65.0,61.5,54.0,93,82,69,29.97,29.82,14,4,19,0.04
2013-5-11,70.8,60.6,53.0,57.0,49.8,38.0,89,69,45,30.12,29.94,19,7,23,0.00
2013-5-12,62.5,53.1,43.2,40.0,37.1,32.0,85,58,35,30.22,30.13,11,4,19,0.00
2013-5-13,71.2,56.2,38.6,49.0,39.9,33.0,96,61,29,30.25,30.09,6,1,12,0.00
2013-5-14,87.4,73.0,54.7,64.0,56.2,44.0,77,57,43,30.08,29.83,14,6,21,0.00
2013-5-15,87.7,78.1,70.0,65.0,61.6,58.0,74,58,44,29.96,29.83,12,5,19,0.00
2013-5-16,83.3,73.0,65.8,67.0,63.3,60.0,93,73,47,29.95,29.85,8,2,15,0.05
2013-5-17,76.9,69.6,63.3,68.0,64.2,61.0,93,83,71,29.97,29.91,9,2,14,0.00
2013-5-18,81.6,72.0,63.4,70.0,65.9,61.0,95,82,63,29.99,29.89,5,0,9,0.00
2013-5-19,90.8,77.7,66.0,77.0,70.0,64.0,93,78,58,29.90,29.77,14,5,19,0.00
2013-5-20,86.9,79.1,72.5,72.0,70.3,69.0,89,75,60,29.90,29.74,12,6,20,0.00
2013-5-21,80.1,70.5,64.8,70.0,65.5,63.0,95,85,65,29.89,29.70,19,5,25,0.94
2013-5-22,78.7,71.0,63.9,65.0,62.8,60.0,94,76,54,29.82,29.71,12,5,19,0.00
2013-5-23,67.3,62.6,54.0,60.0,56.1,49.0,87,80,69,30.21,29.85,15,4,22,0.00
2013-5-24,70.4,56.8,44.0,52.0,45.4,38.0,90,68,41,30.39,30.21,7,2,11,0.00
2013-5-25,73.9,62.0,45.6,58.0,51.7,44.0,96,72,47,30.36,30.14,9,1,11,0.00
2013-5-26,81.6,69.8,56.6,66.0,59.7,52.0,85,71,52,30.20,30.04,10,2,15,0.00
2013-5-27,86.1,73.1,62.8,69.0,63.4,59.0,93,73,46,30.04,29.86,23,6,26,0.06
2013-5-28,87.3,77.0,63.5,70.0,66.2,62.0,94,71,48,29.95,29.84,22,8,26,0.00
2013-5-29,87.1,78.3,64.7,70.0,65.6,61.0,88,66,50,30.00,29.88,16,6,22,0.00
2013-5-30,85.4,78.9,72.3,71.0,69.4,67.0,89,73,60,29.95,29.84,18,10,27,0.02
2013-5-31,81.6,73.9,64.9,73.0,69.5,63.0,96,86,71,29.91,29.79,18,6,22,1.96
2013-6-1,77.7,67.9,64.1,73.0,65.2,63.0,96,91,82,29.92,29.73,26,6,36,2.20
2013-6-2,69.9,66.0,61.6,65.0,61.4,58.0,94,85,76,29.99,29.87,10,3,12,0.00
2013-6-3,70.6,63.2,56.1,60.0,56.6,53.0,92,80,58,30.07,29.98,4,1,7,0.00
2013-6-4,77.6,65.5,52.2,65.0,58.4,51.0,97,79,59,30.09,29.98,8,1,10,0.00
2013-6-5,83.3,72.4,60.5,68.0,64.1,59.0,95,77,51,30.00,29.80,4,1,8,0.00
2013-6-6,81.8,74.2,68.2,68.0,65.2,63.0,87,74,55,29.81,29.75,10,4,16,0.00
2013-6-7,77.2,70.1,63.0,64.0,62.7,61.0,93,78,63,29.87,29.78,12,5,16,0.00
2013-6-8,80.9,70.1,59.2,65.0,60.3,57.0,96,74,45,29.97,29.86,8,1,10,0.00
2013-6-9,80.7,70.8,63.3,70.0,64.0,60.0,95,80,57,29.97,29.79,15,3,16,0.05
2013-6-10,79.9,69.6,61.5,68.0,64.8,60.0,96,86,62,29.90,29.78,8,2,12,0.21
2013-6-11,92.3,77.6,59.9,76.0,69.3,59.0,97,77,54,29.98,29.85,10,3,22,0.00
2013-6-12,93.7,86.0,75.3,77.0,74.0,71.0,87,68,54,29.96,29.74,17,5,25,0.00
2013-6-13,86.2,78.5,66.5,74.0,67.0,60.0,84,69,48,29.95,29.72,14,5,22,0.00
2013-6-14,83.3,71.7,59.1,65.0,61.0,57.0,93,71,49,30.07,29.93,8,2,13,0.00
2013-6-15,87.7,76.2,62.7,71.0,65.2,61.0,95,71,47,30.08,29.93,12,2,16,0.00
2013-6-16,83.4,75.9,69.3,75.0,70.3,66.0,94,83,68,30.00,29.91,9,2,14,0.01
2013-6-17,88.4,73.2,66.5,75.0,68.8,64.0,96,87,57,29.94,29.85,11,2,17,0.17
2013-6-18,88.1,74.9,63.2,72.0,66.3,62.0,96,77,51,29.94,29.85,8,2,10,0.00
2013-6-19,88.4,75.6,63.5,71.0,66.8,62.0,96,76,47,30.04,29.93,5,1,7,0.00
2013-6-20,89.2,78.5,66.0,72.0,68.8,65.0,96,74,51,30.11,30.04,7,2,9,0.00
2013-6-21,90.7,80.8,69.2,74.0,71.2,67.0,92,74,54,30.12,30.02,11,3,16,0.00
2013-6-22,90.1,78.3,69.4,75.0,70.7,67.0,93,79,51,30.10,29.99,12,4,19,0.06
2013-6-23,84.2,73.1,67.4,75.0,69.2,66.0,96,88,71,30.07,29.98,19,3,26,0.77
2013-6-24,89.0,76.1,67.5,79.0,71.5,66.0,96,86,67,30.10,29.97,9,3,16,0.29
2013-6-25,91.3,82.8,74.8,78.0,74.6,72.0,92,77,58,29.99,29.81,13,5,21,0.00
2013-6-26,90.1,79.5,73.6,80.0,73.9,71.0,94,83,70,29.89,29.69,16,4,23,0.06
2013-6-27,93.3,82.0,72.3,77.0,72.9,70.0,96,76,50,29.83,29.74,12,3,15,0.01
2013-6-28,89.0,80.9,72.5,74.0,67.7,59.0,91,66,43,29.81,29.66,16,4,21,0.00
2013-6-29,83.4,72.8,64.8,70.0,64.1,61.0,94,75,54,29.68,29.60,14,3,18,0.15
2013-6-30,77.0,68.8,64.5,68.0,65.3,63.0,95,89,72,29.84,29.67,10,3,19,0.21
2013-7-1,70.0,66.6,63.8,67.0,64.5,62.0,95,93,88,29.90,29.82,8,3,13,1.34
2013-7-2,72.2,67.2,65.4,70.0,65.8,64.0,97,94,89,30.00,29.86,8,2,12,1.70
2013-7-3,80.6,69.7,62.3,66.0,63.6,61.0,96,82,54,30.09,29.99,7,1,9,0.02
2013-7-4,84.2,72.0,59.6,72.0,65.8,59.0,97,82,58,30.08,29.99,4,0,6,0.03
2013-7-5,81.2,72.1,63.4,71.0,67.6,62.0,97,86,69,30.08,30.00,4,0,9,0.00
2013-7-6,84.7,74.3,65.7,73.0,69.0,62.0,94,84,62,30.06,29.96,11,3,13,0.05
2013-7-7,88.8,75.5,61.9,76.0,68.9,61.0,96,81,53,30.07,30.00,9,2,12,0.01
2013-7-8,89.7,79.8,69.9,76.0,72.7,68.0,94,80,61,30.10,30.01,10,2,12,0.00
2013-7-9,92.4,83.4,75.9,80.0,76.0,72.0,90,79,60,30.05,29.93,9,3,13,0.00
2013-7-10,85.8,80.2,74.9,76.0,74.4,72.0,93,82,71,29.95,29.86,5,2,10,0.00
2013-7-11,83.2,75.6,67.2,72.0,65.5,61.0,95,73,50,30.02,29.92,7,2,11,0.00
2013-7-12,85.1,72.9,61.7,66.0,62.7,59.0,91,72,49,30.09,30.00,4,0,10,0.00
2013-7-13,86.3,48.6,61.1,70.0,1.5,-99.9,95,40,50,30.06,29.98,5,-388,9,0.00
2013-7-14,87.1,48.9,65.0,78.0,4.5,-99.9,96,46,62,30.12,30.02,6,-395,10,0.00
2013-7-15,87.9,48.8,72.2,79.0,3.7,-99.9,95,47,69,30.22,30.11,7,-409,11,0.01
2013-7-16,92.9,51.9,70.6,78.0,5.2,-99.9,97,42,57,30.28,30.20,4,-399,7,0.00
2013-7-17,93.6,48.9,72.1,79.0,-0.4,-99.9,96,41,57,30.30,30.22,4,-434,7,0.00
2013-7-18,93.8,68.6,81.7,79.0,37.7,-99.9,85,55,57,30.13,30.01,8,-223,10,0.00
2013-7-19,90.8,51.2,72.6,78.0,5.0,-99.9,95,43,61,30.01,29.87,10,-397,14,0.00
2013-7-20,92.1,44.6,72.7,78.0,-8.0,-99.9,93,39,61,29.93,29.76,9,-473,17,0.45
2013-7-21,85.3,55.6,70.0,77.0,24.4,-99.9,96,62,73,29.93,29.83,7,-280,15,0.92
2013-7-22,89.0,77.4,71.0,77.0,72.8,70.0,96,87,64,29.84,29.77,5,1,12,0.01
2013-7-23,90.3,80.6,72.6,80.0,74.7,68.0,95,83,68,29.85,29.72,6,2,12,0.00
2013-7-24,79.4,72.4,63.3,71.0,63.2,59.0,90,74,55,30.00,29.84,7,2,9,0.00
2013-7-25,80.0,69.6,58.9,66.0,60.9,57.0,94,76,50,30.09,29.99,7,1,11,0.00
2013-7-26,78.7,68.8,58.2,69.0,64.1,57.0,97,86,64,30.06,29.95,6,1,8,0.02
2013-7-27,76.7,70.2,58.3,68.0,63.1,54.0,95,79,57,29.97,29.91,10,3,14,0.03
2013-7-28,78.6,66.3,51.7,65.0,57.3,50.0,97,75,51,30.04,29.97,8,1,12,0.00
2013-7-29,78.0,68.1,57.2,70.0,63.1,56.0,96,85,66,30.15,30.04,5,1,9,0.00
2013-7-30,70.8,68.6,65.6,70.0,66.8,64.0,96,94,86,30.14,30.00,10,2,11,1.29
2013-7-31,83.8,72.9,69.6,76.0,67.7,-99.9,97,88,75,30.02,29.92,7,-20,12,0.06
2013-8-1,84.0,74.2,66.1,73.0,67.9,65.0,96,82,57,30.04,29.97,6,2,11,0.00
2013-8-2,82.9,72.6,62.5,73.0,67.9,61.0,97,86,68,30.00,29.91,7,2,11,0.18
2013-8-3,84.6,75.2,68.2,77.0,71.5,67.0,96,89,72,30.06,29.90,8,1,11,0.02
2013-8-4,80.6,72.0,62.5,68.0,64.6,61.0,95,79,56,30.15,30.06,3,0,6,0.00
2013-8-5,74.6,67.5,60.8,67.0,64.6,59.0,96,90,73,30.09,29.91,9,2,12,0.06
2013-8-6,82.1,72.9,69.1,75.0,70.2,67.0,96,91,74,29.93,29.86,7,1,10,0.00
2013-8-7,83.9,75.4,69.6,76.0,72.0,68.0,96,89,71,29.92,29.82,5,1,10,0.00
2013-8-8,83.2,75.1,67.1,78.0,72.2,66.0,97,91,77,29.94,29.84,7,1,8,0.09
2013-8-9,82.7,75.0,71.0,75.0,72.5,70.0,96,92,76,30.02,29.90,5,0,7,0.13
2013-8-10,85.2,76.5,69.9,74.0,70.5,67.0,96,83,61,30.10,30.02,4,1,9,0.00
2013-8-11,85.0,74.8,64.1,74.0,67.8,62.0,95,80,59,30.12,30.02,4,1,7,0.00
2013-8-12,85.5,74.8,67.7,79.0,71.8,66.0,95,90,78,30.05,29.87,7,1,10,0.05
2013-8-13,80.1,72.8,63.6,73.0,68.4,59.0,96,86,67,30.08,29.90,9,2,12,0.01
2013-8-14,73.8,63.7,54.2,59.0,55.5,51.0,93,76,55,30.17,30.08,7,1,11,0.00
2013-8-15,75.5,63.5,53.8,62.0,56.4,52.0,94,79,56,30.14,30.05,5,1,9,0.00
2013-8-16,77.1,66.5,53.7,65.0,60.0,52.0,96,81,63,30.11,30.07,4,0,7,0.00
2013-8-17,76.4,69.0,63.6,69.0,64.3,60.0,94,85,73,30.16,30.07,4,1,8,0.08
2013-8-18,83.5,72.1,64.2,73.0,67.5,63.0,96,86,64,30.14,30.05,3,0,6,0.04
2013-8-19,85.0,72.3,60.7,73.0,67.1,60.0,97,85,60,30.12,30.02,3,0,6,0.00
2013-8-20,86.6,74.7,62.4,75.0,69.1,61.0,97,84,61,30.11,30.02,3,0,6,0.00
2013-8-21,88.2,76.2,64.0,76.0,69.9,63.0,96,82,56,30.13,30.03,3,0,7,0.00
2013-8-22,90.6,78.5,65.6,78.0,72.3,64.0,96,82,60,30.10,29.98,5,1,8,0.00
2013-8-23,88.6,77.8,69.4,78.0,72.1,67.0,96,84,59,30.08,30.00,4,1,8,0.00
2013-8-24,89.2,75.8,65.3,75.0,68.9,63.0,96,81,53,30.19,30.08,6,1,7,0.00
2013-8-25,89.2,75.2,60.5,76.0,68.9,59.0,96,82,57,30.26,30.16,4,1,7,0.00
2013-8-26,89.5,78.7,68.1,79.0,73.1,67.0,96,84,63,30.22,30.07,5,1,11,0.00
2013-8-27,89.7,79.7,72.4,80.0,74.7,70.0,94,85,71,30.09,29.98,5,1,8,0.00
2013-8-28,92.1,81.6,73.0,76.0,72.1,70.0,91,74,49,30.02,29.95,7,2,12,0.00
2013-8-29,94.3,82.4,71.3,79.0,74.0,69.0,93,77,54,30.01,29.92,5,1,11,0.00
2013-8-30,95.4,82.7,69.8,79.0,74.3,69.0,96,78,52,29.95,29.82,6,1,9,0.00
2013-8-31,96.4,85.0,73.1,80.0,76.1,71.0,94,76,53,29.85,29.71,8,2,12,0.00
2013-9-1,89.7,79.0,70.4,77.0,73.4,69.0,94,83,64,29.82,29.72,11,2,17,0.00
2013-9-2,84.8,75.7,66.4,73.0,68.8,63.0,96,80,56,29.91,29.80,10,2,13,0.00
2013-9-3,82.2,71.0,61.2,68.0,63.7,59.0,95,79,53,30.06,29.92,6,1,10,0.00
2013-9-4,84.2,68.4,54.1,66.0,60.3,53.0,96,78,44,30.15,30.06,5,0,8,0.00
2013-9-5,85.4,69.9,55.3,69.0,62.3,54.0,96,79,50,30.20,30.11,5,0,7,0.00
2013-9-6,88.4,73.5,59.6,71.0,65.8,58.0,97,79,52,30.17,30.04,6,1,11,0.00
2013-9-7,90.0,74.7,60.5,72.0,66.9,59.0,96,79,51,30.06,29.93,8,1,11,0.00
2013-9-8,85.3,75.0,68.1,77.0,70.8,66.0,94,87,71,29.98,29.89,5,1,10,0.02
2013-9-9,96.2,81.2,70.3,79.0,73.9,69.0,96,80,50,29.98,29.90,7,2,11,0.00
2013-9-10,92.4,81.6,72.8,77.0,73.8,71.0,95,78,53,30.09,29.97,11,2,13,0.00
2013-9-11,96.6,82.6,71.7,76.0,72.8,68.0,94,75,41,30.13,30.01,6,2,9,0.00
2013-9-12,87.7,77.1,68.2,73.0,68.4,55.0,93,76,53,30.05,29.94,9,2,13,0.02
2013-9-13,75.8,65.8,55.5,58.0,54.3,50.0,92,68,47,30.09,30.00,8,2,11,0.00
2013-9-14,77.0,60.4,46.6,54.0,49.2,44.0,94,70,38,30.16,30.04,6,1,9,0.00
2013-9-15,82.2,64.8,46.5,61.0,53.8,45.0,96,71,38,30.10,30.01,10,2,11,0.00
2013-9-16,75.1,67.3,59.6,65.0,61.7,57.0,93,83,66,30.22,30.06,6,2,10,0.02
2013-9-17,82.4,68.5,56.6,65.0,60.4,55.0,94,77,50,30.23,30.08,5,1,10,0.00
2013-9-18,87.9,74.8,65.3,73.0,68.2,62.0,94,81,57,30.11,29.97,9,2,13,0.01
2013-9-19,90.5,78.9,70.4,75.0,71.9,69.0,94,80,57,30.03,29.89,10,4,14,0.00
2013-9-20,77.4,72.3,66.2,71.0,68.8,63.0,95,89,76,29.93,29.82,9,2,12,0.30
2013-9-21,73.7,63.7,53.1,63.0,54.1,51.0,94,73,47,29.92,29.85,12,4,19,0.00
2013-9-22,77.1,60.9,47.0,58.0,51.9,46.0,96,76,41,30.01,29.92,5,0,9,0.00
2013-9-23,79.0,61.4,46.0,58.0,51.8,45.0,96,75,39,30.04,29.93,5,1,13,0.00
2013-9-24,83.1,67.5,53.0,68.0,60.3,50.0,94,80,54,29.96,29.81,8,2,13,0.02
2013-9-25,83.8,70.9,61.8,70.0,65.1,60.0,96,83,56,29.86,29.79,5,0,9,0.01
2013-9-26,86.1,69.4,57.5,69.0,61.2,56.0,96,78,45,30.02,29.86,5,0,9,0.00
2013-9-27,83.7,66.2,51.0,63.0,56.9,50.0,96,76,42,30.12,30.01,6,1,12,0.00
2013-9-28,84.6,69.7,55.2,66.0,59.5,53.0,96,73,45,30.10,29.98,12,4,20,0.00
2013-9-29,70.3,65.5,63.1,64.0,62.8,60.0,95,91,71,30.03,29.97,7,2,9,0.35
2013-9-30,74.0,66.9,63.0,68.0,64.3,62.0,95,91,79,29.99,29.92,11,2,13,0.00
2013-10-1,80.8,70.9,64.1,72.0,67.5,63.0,96,89,72,30.05,29.96,9,3,11,0.00
2013-10-2,82.6,72.2,68.8,74.0,69.8,67.0,96,92,73,30.07,29.98,6,1,12,0.23
2013-10-3,86.0,75.5,68.3,71.0,68.2,66.0,95,80,55,30.02,29.91,15,3,17,0.00
2013-10-4,87.5,75.4,69.3,74.0,70.3,66.0,95,85,60,30.02,29.92,8,2,21,0.66
2013-10-5,82.0,71.9,67.5,75.0,69.6,66.0,96,93,75,29.97,29.81,8,3,15,1.12
2013-10-6,67.7,59.2,50.3,65.0,50.4,44.0,95,75,50,29.92,29.80,10,3,18,0.00
2013-10-7,66.9,56.0,48.2,52.0,48.7,45.0,94,78,54,30.16,29.91,10,2,14,0.00
2013-10-8,73.6,57.2,44.5,55.0,49.5,43.0,97,79,47,30.23,30.13,7,1,11,0.00
2013-10-9,78.5,59.7,44.5,61.0,53.1,43.0,96,81,52,30.20,30.09,5,0,7,0.00
2013-10-10,80.1,64.8,53.1,67.0,59.7,52.0,97,85,58,30.15,30.01,4,1,7,0.00
2013-10-11,81.3,65.9,55.4,65.0,58.6,54.0,97,80,49,30.06,29.95,9,2,15,0.00
2013-10-12,73.4,63.1,56.1,69.0,60.9,55.0,96,93,82,30.16,29.98,5,1,8,0.16
2013-10-13,74.7,61.3,50.9,60.0,48.2,43.0,96,66,32,30.35,30.16,8,2,12,0.01
2013-10-14,70.9,58.1,46.5,59.0,50.6,42.0,92,77,61,30.32,30.08,3,0,5,0.00
2013-10-15,69.0,65.2,58.5,66.0,62.4,56.0,94,91,86,30.08,29.91,9,3,15,0.12
2013-10-16,64.3,56.7,47.7,61.0,49.2,45.0,94,77,56,30.03,29.93,9,4,14,0.01
2013-10-17,64.0,52.7,45.2,51.0,47.5,44.0,95,83,55,30.01,29.94,7,1,13,0.13
2013-10-18,67.3,54.2,42.2,52.0,46.7,41.0,97,78,50,30.06,29.95,8,2,12,0.01
2013-10-19,58.5,49.2,43.0,48.0,42.2,37.0,94,79,46,30.04,29.94,13,4,16,0.28
2013-10-20,66.9,52.5,40.3,48.0,43.4,38.0,93,74,48,30.04,29.94,16,4,19,0.00
2013-10-21,61.9,52.2,43.0,51.0,45.7,38.0,93,79,64,30.07,29.97,13,4,15,0.00
2013-10-22,59.2,47.0,33.5,48.0,39.2,32.0,96,77,48,30.09,29.83,17,4,25,0.07
2013-10-23,50.7,44.8,40.6,40.0,36.1,30.0,87,73,49,30.15,29.94,18,7,26,0.00
2013-10-24,50.2,42.6,34.8,38.0,32.4,27.0,91,69,43,30.42,30.14,16,5,21,0.00
2013-10-25,53.8,38.7,25.8,33.0,28.6,24.0,94,71,37,30.55,30.29,8,1,11,0.00
2013-10-26,62.5,48.1,32.4,45.0,37.5,28.0,86,68,51,30.28,30.00,14,4,19,0.00
2013-10-27,61.9,44.1,30.9,43.0,34.3,29.0,96,73,37,30.15,30.04,7,1,9,0.00
2013-10-28,70.2,48.8,32.4,45.0,38.6,31.0,96,73,34,30.26,30.08,7,0,8,0.00
2013-10-29,58.0,51.8,43.4,57.0,48.9,39.0,96,90,77,30.29,30.09,5,1,8,0.20
2013-10-30,76.5,67.9,55.9,68.0,63.6,55.0,96,86,69,30.09,29.90,16,5,20,0.16
2013-10-31,68.0,63.3,54.7,66.0,61.4,52.0,96,93,89,29.90,29.39,21,8,26,2.18
2013-11-1,64.4,54.7,45.3,53.0,48.0,43.0,94,80,53,29.85,29.64,13,3,16,0.00
2013-11-2,54.8,47.8,39.0,47.0,42.5,37.0,95,83,61,30.20,29.84,16,4,20,0.00
2013-11-3,59.0,45.2,32.0,44.0,36.9,31.0,96,76,44,30.34,30.19,7,1,13,0.00
2013-11-4,59.7,51.7,43.0,49.0,43.7,38.0,93,75,59,30.29,30.21,9,3,17,0.02
2013-11-5,66.2,57.9,49.9,53.0,50.1,48.0,95,77,59,30.33,30.09,15,5,20,0.02
2013-11-6,62.9,52.8,41.5,55.0,48.6,38.0,94,86,68,30.25,29.99,16,9,22,0.42
2013-11-7,53.7,42.3,34.1,39.0,35.7,32.0,94,79,53,30.40,30.25,8,2,13,0.00
2013-11-8,58.1,43.0,29.8,42.0,33.4,28.0,96,72,39,30.42,30.17,14,3,15,0.01
2013-11-9,66.1,53.5,41.5,48.0,42.5,35.0,87,68,46,30.22,30.10,12,4,22,0.00
2013-11-10,56.9,46.1,34.6,45.0,36.8,33.0,94,73,43,30.42,30.22,8,2,12,0.00
2013-11-11,62.9,47.4,33.7,48.0,37.2,32.0,94,72,40,30.41,30.13,15,3,20,0.01
2013-11-12,38.3,32.4,22.6,35.0,24.6,19.0,91,74,56,30.74,30.42,14,6,22,0.01
2013-11-13,44.6,31.4,18.6,26.0,20.9,17.0,94,69,35,30.74,30.40,8,2,11,0.00
2013-11-14,55.5,42.8,28.3,28.0,25.4,23.0,79,53,30,30.40,30.13,15,5,20,0.00
2013-11-15,52.2,47.8,39.6,47.0,36.5,26.0,90,66,44,30.13,30.01,8,4,14,0.01
2013-11-16,66.9,59.3,48.3,63.0,55.5,46.0,93,87,77,30.02,29.72,17,9,28,0.01
2013-11-17,76.2,66.3,53.2,68.0,54.4,32.0,94,70,31,29.94,29.46,22,10,33,1.34
2013-11-18,56.9,47.6,34.4,43.0,37.1,31.0,89,69,41,30.30,29.94,17,5,21,0.00
2013-11-19,48.2,38.5,32.4,34.0,31.1,29.0,90,75,51,30.37,30.25,3,1,5,0.00
2013-11-20,51.9,42.7,31.0,40.0,35.0,28.0,91,75,54,30.26,30.11,7,2,12,0.00
2013-11-21,54.2,52.0,50.6,51.0,47.0,39.0,96,84,63,30.21,30.14,12,3,15,1.01
2013-11-22,52.3,45.2,38.5,51.0,43.0,34.0,96,92,84,30.48,30.17,17,7,22,0.04
2013-11-23,38.3,32.4,22.1,34.0,24.9,15.0,90,75,54,30.72,30.48,20,8,23,0.00
2013-11-24,31.7,24.9,17.9,20.0,15.6,12.0,78,68,49,30.79,30.50,6,2,9,0.00
2013-11-25,37.2,32.9,27.6,28.0,22.7,19.0,78,67,53,30.50,30.21,9,2,12,0.00
2013-11-26,42.1,35.4,25.9,32.0,27.0,15.0,87,72,60,30.21,30.02,20,7,26,0.00
2013-11-27,29.6,23.7,18.2,15.0,13.0,11.0,87,65,48,30.39,30.19,17,8,25,0.00
2013-11-28,45.4,30.6,17.7,27.0,20.9,13.0,91,70,45,30.50,30.31,15,4,25,0.00
2013-11-29,48.1,34.2,23.0,32.0,26.5,21.0,92,75,51,30.62,30.43,3,1,8,0.00
2013-11-30,55.4,42.5,26.7,35.0,31.3,24.0,92,67,43,30.43,30.16,14,4,20,0.00
2013-12-1,60.1,47.6,36.0,45.0,39.8,34.0,94,75,57,30.16,29.92,7,1,9,0.00
2013-12-2,58.8,45.5,34.4,50.0,42.0,33.0,96,88,72,29.92,29.72,6,1,8,0.00
2013-12-3,60.2,50.7,44.2,54.0,48.0,43.0,96,91,75,29.76,29.68,10,2,15,0.00
2013-12-4,68.1,59.1,42.7,62.0,55.3,41.0,96,87,75,29.80,29.58,19,6,25,0.00
2013-12-5,52.8,34.0,24.4,48.0,30.9,22.0,94,88,78,30.28,29.81,20,5,22,0.10
2013-12-6,24.5,22.4,18.8,23.0,20.4,15.0,93,92,83,30.57,30.24,10,2,13,0.00
2013-12-7,23.0,17.1,9.2,16.0,12.1,6.0,87,81,70,30.73,30.49,7,2,12,0.00
2013-12-8,30.4,25.9,20.3,29.0,23.4,16.0,95,90,83,30.47,30.04,5,1,11,0.00
2013-12-9,29.7,26.9,22.2,27.0,21.7,17.0,92,81,69,30.32,30.12,13,4,18,0.00
2013-12-10,35.7,24.8,14.6,21.0,18.7,12.0,93,79,52,30.39,30.27,9,3,15,0.01
2013-12-11,33.1,21.8,11.0,27.0,16.7,4.0,94,81,64,30.68,30.37,14,4,21,0.01
2013-12-12,30.7,17.2,0.0,16.0,7.2,-3.0,89,67,43,30.68,30.37,9,3,13,0.00
2013-12-13,39.5,30.0,19.8,33.0,24.5,14.0,94,81,56,30.36,30.01,10,4,14,0.02
2013-12-14,36.1,34.3,30.0,35.0,32.5,27.0,96,93,87,30.13,29.83,18,6,22,0.82
2013-12-15,32.6,29.4,26.8,31.0,25.8,23.0,93,86,80,30.25,30.11,14,5,19,0.00
2013-12-16,47.4,38.9,32.7,37.0,33.6,31.0,92,82,63,30.10,30.03,9,3,12,0.15
2013-12-17,40.7,32.2,28.2,33.0,28.6,25.0,93,87,72,30.30,30.10,11,4,14,0.00
2013-12-18,47.6,37.0,22.9,35.0,27.2,21.0,93,70,44,30.31,30.02,13,5,20,0.00
2013-12-19,58.0,51.4,42.8,52.0,44.6,36.0,82,77,67,30.03,29.86,20,9,24,0.00
2013-12-20,64.3,58.1,43.9,62.0,54.8,42.0,94,89,80,29.86,29.77,16,9,22,1.06
2013-12-21,43.7,39.8,37.1,42.0,38.6,36.0,96,95,93,29.82,29.52,17,4,17,2.96
2013-12-22,41.5,37.5,32.7,40.0,35.3,30.0,96,91,83,30.25,29.64,16,6,20,0.01
2013-12-23,32.6,27.8,21.6,30.0,22.9,16.0,89,82,76,30.57,30.25,16,9,21,0.00
2013-12-24,25.4,19.4,13.0,16.0,11.3,7.0,82,71,54,30.67,30.44,13,4,18,0.00
2013-12-25,37.1,29.9,20.0,31.0,23.1,15.0,88,76,66,30.44,30.29,9,3,14,0.00
2013-12-26,45.5,35.4,25.2,32.0,28.8,23.0,95,78,50,30.44,30.32,9,3,13,0.00
2013-12-27,52.7,40.3,31.1,38.0,33.2,28.0,89,77,57,30.43,30.31,12,3,14,0.00
2013-12-28,50.3,41.9,32.2,38.0,34.5,29.0,92,76,57,30.31,29.96,10,3,14,0.00
2013-12-29,44.3,34.8,23.3,38.0,30.4,19.0,88,84,77,30.26,29.89,21,8,24,0.00
2013-12-30,27.1,22.3,16.1,19.0,14.4,10.0,83,72,51,30.38,30.25,11,3,14,0.00
2013-12-31,41.6,33.0,21.6,29.0,23.0,17.0,83,67,53,30.47,30.27,11,4,19,0.00
2014-1-1,45.5,38.6,32.3,35.0,31.8,29.0,93,77,61,30.26,29.97,11,4,17,0.04
2014-1-2,37.4,22.9,15.1,35.0,19.0,11.0,93,85,77,30.50,29.96,23,12,28,0.00